Airfield :
LOGIN :

Register | Disclaimer

   EN    FR    IT 

 










Legend :    VFR   Marginal VFR   IFR   Intensive IFR   Very Intensive IFR
Visi :
Ceiling :
>= 8 km
>= 3000ft
5 to 8 km
1000 to 3000 ft
1500m to 5 km
500 to 1000 ft
800 to 1500m
200 to 500 ft
< 800m
< 200 ft
Symbols :   Thunderstorms  Fog  Heavy snow  Heavy precipitations  Wind > 20 kt
SIGMETs :     Misc.  Thunderstorms  Icing  Turbulence  Mountain Waves  Volcanic Ashes






- Airport Elevation : 348 ft
- IATA code : STN


EGSS - London Stansted

CURRENT METAR :
  • 280420Z AUTO 22012KT 9999 NCD 07/06 Q1000

EXPIRED METARs :
  • 280350Z AUTO 22013KT 9999 NCD 07/06 Q1000
  • 280320Z AUTO 22011KT 9999 NCD 07/06 Q1000
  • 280250Z AUTO 21009KT 9999 NCD 07/06 Q1000
  • 280220Z AUTO 22011KT 9999 NCD 08/06 Q1000
  • 280150Z AUTO 21009KT 9999 NCD 07/06 Q1000

TAF TAF EGSS
Valid from the 28 at 00:00 until the 29 at 06:00 UTC


272258Z 2800/2906 21011KT 9999 SCT030
TEMPO 2810/2905 23015G25KT
PROB30
TEMPO 2813/2818 4000 +SHRA BKN014CB
ATIS : +44 1279 669 325



MET'MAP, your aeronautical weather chart ! - Copyright ORBIFLY December 2007 - Disclaimer

ORBIFLY MET'MAP TEAM :

Programming & Development : Alexandra Zaïnal
Concept & original design : Baudouin d'Aumeries
Assistance for programming : Marc-Olivier Méhu
Technical & hardware support : Manuel Goepfert

Contact : metmap@orbifly.com




SOURCES & CREDITS :

   NOAA